Flight Briefing for CPX717

Departure Arrival
Miami International Airport (KMIA)
Click to view FAA NOTAMS
General Omar Torrijos International Airport (MPTO)
Click to view FAA NOTAMS
Departure Time Arrival Time
N/A N/A
Aircraft Distance
B767-300BDSF 1007nm
Departure METAR Arrival METAR
KMIA 251153Z 10010G17KT 10SM BKN030 27/18 A3006 RMK AO2 SLP178 T02670183 10267 20250 53010 $ MPTO 251200Z 06008KT 9999 FEW018 SCT090 25/24 Q1009 NOSIG
Suggested Route
EONNS2 EONNS A509 URSUS UA301 UCA UG437 MARMA OSUPA


View recent IFR Routes data
Notes



Charts and Procedures

Charts for KMIA
No chart available
Charts for MPTO
No chart available

Windy.com Weather Map